Time;durP1;ratioP1;P1;durP2;ratioP2;P2;SDS_P1;SDS_P2;PMS_P1;PMS_P2;Temp;Humidity;BMP_temperature;BMP_pressure;BME280_temperature;BME280_humidity;BME280_pressure;Samples;Min_cycle;Max_cycle;Signal;HPM_P1;HPM_P2
2023/08/30 00:00:27;;;;;;;;;;;;;;;28.05;60.06;99669.97;7402776;19;1813;-46
2023/08/30 00:02:56;;;;;;;;;;;;;;;28.02;60.17;99676.69;7401736;19;1844;-46
2023/08/30 00:05:24;;;;;;;;;;;;;;;28.04;60.04;99706.34;7400486;19;1721;-46
2023/08/30 00:07:52;;;;;;;;;;;;;;;28.00;60.42;99684.22;7402069;19;1680;-46
2023/08/30 00:10:20;;;;;;;;;;;;;;;28.01;60.07;99668.75;7399491;19;1443;-46
2023/08/30 00:12:52;;;;;;;;;;;;;;;28.00;60.15;99675.25;7399373;19;1854;-47
2023/08/30 00:15:20;;;;;;;;;;;;;;;27.99;60.17;99693.41;7399930;19;1786;-46
2023/08/30 00:17:48;;;;;;;;;;;;;;;27.95;60.33;99665.00;7400591;19;1946;-46
2023/08/30 00:20:17;;;;;;;;;;;;;;;27.96;60.34;99666.69;7401517;19;1800;-46
2023/08/30 00:22:45;;;;;;;;;;;;;;;28.00;60.31;99683.41;7401288;19;1791;-46
2023/08/30 00:25:13;;;;;;;;;;;;;;;27.96;60.52;99667.50;7398583;19;1892;-46
2023/08/30 00:27:41;;;;;;;;;;;;;;;27.96;60.50;99650.38;7400830;19;1643;-46
2023/08/30 00:30:13;;;;;;;;;;;;;;;27.97;60.33;99673.78;7400265;19;1388;-46
2023/08/30 00:32:42;;;;;;;;;;;;;;;27.98;60.32;99670.03;7399871;19;1837;-46
2023/08/30 00:35:10;;;;;;;;;;;;;;;27.98;60.43;99670.03;7400532;19;1697;-46
2023/08/30 00:37:39;;;;;;;;;;;;;;;28.00;60.08;99656.22;7400814;19;1816;-46
2023/08/30 00:40:08;;;;;;;;;;;;;;;27.96;60.20;99653.94;7396877;19;1760;-46
2023/08/30 00:42:36;;;;;;;;;;;;;;;27.97;60.37;99662.91;7401686;19;1760;-46
2023/08/30 00:45:04;;;;;;;;;;;;;;;27.97;60.50;99673.78;7399876;19;1765;-46
2023/08/30 00:47:36;;;;;;;;;;;;;;;27.96;60.45;99666.69;7399984;19;1482;-46
2023/08/30 00:50:05;;;;;;;;;;;;;;;27.97;60.31;99662.91;7400363;19;1745;-46
2023/08/30 00:52:33;;;;;;;;;;;;;;;27.96;60.23;99678.38;7400769;19;1838;-46
2023/08/30 00:55:02;;;;;;;;;;;;;;;27.94;60.56;99672.34;7400535;19;1978;-46
2023/08/30 00:57:30;;;;;;;;;;;;;;;27.96;60.37;99667.50;7399428;19;1801;-46
2023/08/30 00:59:59;;;;;;;;;;;;;;;27.95;60.52;99656.88;7399409;19;1827;-46
2023/08/30 01:02:27;;;;;;;;;;;;;;;27.97;60.43;99668.34;7399210;19;1499;-46
2023/08/30 01:04:58;;;;;;;;;;;;;;;27.92;60.34;99665.47;7400258;19;1682;-46
2023/08/30 01:07:27;;;;;;;;;;;;;;;27.96;60.28;99663.97;7399294;19;1961;-46
2023/08/30 01:09:55;;;;;;;;;;;;;;;27.99;60.28;99676.28;7398475;19;1682;-46
2023/08/30 01:12:26;;;;;;;;;;;;;;;28.00;60.22;99669.81;7399510;19;1837;-46
2023/08/30 01:14:55;;;;;;;;;;;;;;;27.95;60.38;99679.47;7398213;19;1808;-46
2023/08/30 01:17:24;;;;;;;;;;;;;;;27.95;60.20;99682.19;7400143;19;1523;-46
2023/08/30 01:19:56;;;;;;;;;;;;;;;27.96;60.40;99691.16;7399486;19;1868;-46
2023/08/30 01:22:32;;;;;;;;;;;;;;;27.94;60.32;99679.66;7398267;19;1523;-46
2023/08/30 01:25:09;;;;;;;;;;;;;;;27.93;60.16;99683.44;7397604;19;1491;-46
2023/08/30 01:27:40;;;;;;;;;;;;;;;27.92;60.34;99689.94;7397970;19;1551;-46
2023/08/30 01:30:10;;;;;;;;;;;;;;;27.91;60.51;99680.09;7398678;19;1741;-46
2023/08/30 01:32:39;;;;;;;;;;;;;;;27.91;60.60;99672.81;7398004;19;1844;-46
2023/08/30 01:35:09;;;;;;;;;;;;;;;27.93;60.47;99683.44;7398421;19;1682;-46
2023/08/30 01:37:38;;;;;;;;;;;;;;;27.91;60.36;99680.09;7399169;19;1799;-46
2023/08/30 01:40:07;;;;;;;;;;;;;;;27.98;60.26;99682.78;7396745;19;1805;-46
2023/08/30 01:42:35;;;;;;;;;;;;;;;27.95;60.25;99693.03;7399395;19;1388;-46
2023/08/30 01:45:08;;;;;;;;;;;;;;;27.96;60.47;99685.72;7398029;19;1737;-47
2023/08/30 01:47:37;;;;;;;;;;;;;;;27.92;60.58;99670.91;7398535;19;1484;-46
2023/08/30 01:50:06;;;;;;;;;;;;;;;27.92;60.47;99670.91;7398864;19;1812;-46
2023/08/30 01:52:35;;;;;;;;;;;;;;;27.90;60.61;99683.88;7398660;19;1842;-46
2023/08/30 01:55:04;;;;;;;;;;;;;;;27.91;60.48;99680.09;7399324;19;1674;-45
2023/08/30 01:57:33;;;;;;;;;;;;;;;27.87;60.70;99663.41;7397783;19;1856;-45
2023/08/30 02:00:01;;;;;;;;;;;;;;;27.89;60.73;99671.34;7397134;19;1934;-44
2023/08/30 02:02:34;;;;;;;;;;;;;;;27.86;60.70;99678.03;7396743;19;1484;-45
2023/08/30 02:05:02;;;;;;;;;;;;;;;27.87;60.50;99667.97;7398166;19;1816;-45
2023/08/30 02:07:33;;;;;;;;;;;;;;;27.88;60.42;99664.25;7397481;19;1471;-44
2023/08/30 02:10:03;;;;;;;;;;;;;;;27.88;60.44;99670.50;7397203;19;1741;-45
2023/08/30 02:12:35;;;;;;;;;;;;;;;27.88;60.72;99667.78;7397541;19;2026;-44
2023/08/30 02:15:04;;;;;;;;;;;;;;;27.90;60.66;99662.16;7397916;19;1811;-44
2023/08/30 02:17:36;;;;;;;;;;;;;;;27.86;60.45;99666.34;7397547;19;1903;-45
2023/08/30 02:20:04;;;;;;;;;;;;;;;27.86;60.81;99672.59;7398156;19;1876;-44
2023/08/30 02:22:33;;;;;;;;;;;;;;;27.88;60.41;99675.94;7396933;19;1716;-45
2023/08/30 02:25:04;;;;;;;;;;;;;;;27.87;60.42;99670.69;7395248;19;1789;-44
2023/08/30 02:27:32;;;;;;;;;;;;;;;27.85;60.64;99664.66;7396468;19;1704;-45
2023/08/30 02:30:01;;;;;;;;;;;;;;;27.85;60.71;99667.38;7396218;19;1651;-45
2023/08/30 02:32:29;;;;;;;;;;;;;;;27.85;60.53;99654.59;7395914;19;1800;-44
2023/08/30 02:35:00;;;;;;;;;;;;;;;27.82;60.43;99648.81;7395849;19;1845;-44
2023/08/30 02:37:28;;;;;;;;;;;;;;;27.85;60.46;99670.09;7396884;19;1654;-44
2023/08/30 02:39:57;;;;;;;;;;;;;;;27.87;60.59;99652.53;7394748;19;1703;-44
2023/08/30 02:42:26;;;;;;;;;;;;;;;27.83;60.67;99667.59;7397085;19;1400;-45
2023/08/30 02:44:54;;;;;;;;;;;;;;;27.85;60.65;99668.19;7395847;19;1717;-44
2023/08/30 02:47:22;;;;;;;;;;;;;;;27.83;60.85;99670.28;7397412;19;1784;-45
2023/08/30 02:49:50;;;;;;;;;;;;;;;27.80;60.83;99673.47;7403579;19;1733;-45
2023/08/30 02:52:22;;;;;;;;;;;;;;;27.81;60.58;99682.44;7404298;19;1895;-44
2023/08/30 02:54:50;;;;;;;;;;;;;;;27.76;60.59;99683.94;7401757;19;1849;-44
2023/08/30 02:57:18;;;;;;;;;;;;;;;27.77;60.85;99682.91;7403614;19;1839;-45
2023/08/30 02:59:47;;;;;;;;;;;;;;;27.80;60.66;99678.91;7403453;19;1728;-44
2023/08/30 03:02:15;;;;;;;;;;;;;;;27.84;60.61;99684.75;7402994;19;1451;-44
2023/08/30 03:04:43;;;;;;;;;;;;;;;27.81;60.86;99688.72;7403716;19;1753;-44
2023/08/30 03:07:11;;;;;;;;;;;;;;;27.78;60.86;99691.88;7402654;19;1511;-44
2023/08/30 03:09:42;;;;;;;;;;;;;;;27.80;60.90;99691.66;7403483;19;1803;-44
2023/08/30 03:12:11;;;;;;;;;;;;;;;27.74;60.72;99698.81;7403955;19;1780;-45
2023/08/30 03:14:39;;;;;;;;;;;;;;;27.78;60.62;99698.13;7401041;19;1852;-44
2023/08/30 03:17:07;;;;;;;;;;;;;;;27.84;60.54;99699.16;7404625;19;1121;-45
2023/08/30 03:19:35;;;;;;;;;;;;;;;27.79;60.64;99709.81;7404010;19;1722;-44
2023/08/30 03:22:04;;;;;;;;;;;;;;;27.75;60.81;99695.88;7402195;19;1400;-44
2023/08/30 03:24:32;;;;;;;;;;;;;;;27.74;60.87;99704.25;7402459;19;1998;-44
2023/08/30 03:27:03;;;;;;;;;;;;;;;27.74;61.03;99713.22;7402610;19;1748;-44
2023/08/30 03:29:31;;;;;;;;;;;;;;;27.75;60.86;99687.72;7402464;19;1522;-44
2023/08/30 03:32:00;;;;;;;;;;;;;;;27.72;60.96;99712.59;7401285;19;1800;-45
2023/08/30 03:34:28;;;;;;;;;;;;;;;27.68;60.75;99703.22;7401111;19;1842;-44
2023/08/30 03:36:56;;;;;;;;;;;;;;;27.73;60.83;99716.13;7402074;19;1587;-45
2023/08/30 03:39:25;;;;;;;;;;;;;;;27.72;60.84;99714.50;7401913;19;1595;-45
2023/08/30 03:41:53;;;;;;;;;;;;;;;27.73;60.76;99722.41;7402230;19;1245;-44
2023/08/30 03:44:25;;;;;;;;;;;;;;;27.72;60.67;99718.03;7402979;19;1891;-44
2023/08/30 03:46:53;;;;;;;;;;;;;;;27.75;60.64;99712.19;7402936;19;1602;-44
2023/08/30 03:49:22;;;;;;;;;;;;;;;27.73;60.71;99719.69;7401966;19;2027;-44
2023/08/30 03:51:50;;;;;;;;;;;;;;;27.70;60.92;99722.03;7401503;19;1693;-44
2023/08/30 03:54:18;;;;;;;;;;;;;;;27.74;60.88;99734.94;7400274;19;1858;-44
2023/08/30 03:56:47;;;;;;;;;;;;;;;27.70;60.80;99725.56;7401553;19;1400;-45
2023/08/30 03:59:15;;;;;;;;;;;;;;;27.72;60.70;99723.47;7401178;19;1741;-44
2023/08/30 04:01:46;;;;;;;;;;;;;;;27.69;61.04;99710.31;7399468;19;1444;-45
2023/08/30 04:04:14;;;;;;;;;;;;;;;27.71;60.86;99712.81;7401364;19;1490;-45
2023/08/30 04:06:43;;;;;;;;;;;;;;;27.72;61.00;99719.91;7398744;19;1491;-45
2023/08/30 04:09:11;;;;;;;;;;;;;;;27.67;60.98;99712.41;7399739;19;1872;-44
2023/08/30 04:11:39;;;;;;;;;;;;;;;27.70;60.86;99722.84;7401804;19;1658;-44
2023/08/30 04:14:07;;;;;;;;;;;;;;;27.78;60.81;99730.72;7401148;19;1851;-45
2023/08/30 04:16:36;;;;;;;;;;;;;;;27.81;60.62;99728.63;7402113;19;1848;-46
2023/08/30 04:19:07;;;;;;;;;;;;;;;27.93;60.19;99737.78;7400631;19;1829;-44
2023/08/30 04:21:35;;;;;;;;;;;;;;;28.24;59.55;99728.75;7401296;19;1784;-44
2023/08/30 04:24:03;;;;;;;;;;;;;;;28.20;59.29;99737.59;7401112;19;1820;-44
2023/08/30 04:26:31;;;;;;;;;;;;;;;27.99;60.06;99747.75;7400302;19;1804;-44
2023/08/30 04:29:00;;;;;;;;;;;;;;;27.84;60.26;99739.06;7400310;19;1465;-44
2023/08/30 04:31:28;;;;;;;;;;;;;;;27.78;60.57;99736.16;7400145;19;1720;-45
2023/08/30 04:33:56;;;;;;;;;;;;;;;27.82;60.76;99746.63;7401169;19;1829;-45
2023/08/30 04:36:27;;;;;;;;;;;;;;;27.77;60.47;99745.38;7402022;19;1716;-44
2023/08/30 04:38:56;;;;;;;;;;;;;;;27.78;60.62;99741.59;7402074;19;1272;-44
2023/08/30 04:41:24;;;;;;;;;;;;;;;27.81;60.44;99740.31;7400648;19;1982;-44
2023/08/30 04:43:53;;;;;;;;;;;;;;;27.90;60.37;99749.09;7399860;19;1907;-44
2023/08/30 04:46:21;;;;;;;;;;;;;;;28.19;59.56;99746.78;7401256;19;1408;-44
2023/08/30 04:48:49;;;;;;;;;;;;;;;28.16;59.66;99738.00;7399365;19;1459;-45
2023/08/30 04:51:17;;;;;;;;;;;;;;;28.08;59.82;99762.75;7399009;19;1752;-45
2023/08/30 04:53:48;;;;;;;;;;;;;;;27.96;60.09;99748.22;7399577;19;1844;-44
2023/08/30 04:56:18;;;;;;;;;;;;;;;27.89;60.41;99750.13;7399858;19;1766;-44
2023/08/30 04:58:46;;;;;;;;;;;;;;;27.94;60.41;99758.47;7400343;19;1368;-45
2023/08/30 05:01:15;;;;;;;;;;;;;;;27.99;60.28;99780.38;7400795;19;1715;-45
2023/08/30 05:03:44;;;;;;;;;;;;;;;27.96;60.33;99767.25;7400238;19;1943;-45
2023/08/30 05:06:15;;;;;;;;;;;;;;;27.93;60.29;99794.84;7399005;19;1896;-45
2023/08/30 05:08:44;;;;;;;;;;;;;;;27.94;60.26;99794.63;7400132;19;1864;-44
2023/08/30 05:11:15;;;;;;;;;;;;;;;27.88;60.31;99814.50;7398442;19;1457;-45
2023/08/30 05:13:44;;;;;;;;;;;;;;;27.86;60.56;99788.59;7399580;19;1878;-44
2023/08/30 05:16:12;;;;;;;;;;;;;;;27.86;60.32;99789.41;7400162;19;1828;-44
2023/08/30 05:18:40;;;;;;;;;;;;;;;27.82;60.53;99790.91;7399342;19;1736;-44
2023/08/30 05:21:08;;;;;;;;;;;;;;;27.86;60.59;99802.19;7399337;19;1436;-44
2023/08/30 05:23:37;;;;;;;;;;;;;;;27.85;60.52;99805.94;7398474;19;1499;-45
2023/08/30 05:26:05;;;;;;;;;;;;;;;27.85;60.51;99811.38;7398335;19;1495;-45
2023/08/30 05:28:36;;;;;;;;;;;;;;;27.85;60.32;99823.06;7399180;19;1817;-44
2023/08/30 05:31:05;;;;;;;;;;;;;;;27.85;60.26;99825.78;7399403;19;1498;-44
2023/08/30 05:33:33;;;;;;;;;;;;;;;27.85;60.23;99828.50;7400787;19;979;-45
2023/08/30 05:36:02;;;;;;;;;;;;;;;27.88;60.51;99816.41;7397246;19;1867;-44
2023/08/30 05:38:30;;;;;;;;;;;;;;;27.92;60.18;99828.50;7399913;19;1647;-45
2023/08/30 05:40:58;;;;;;;;;;;;;;;27.91;60.14;99819.53;7398379;19;1916;-44
2023/08/30 05:43:27;;;;;;;;;;;;;;;27.85;60.29;99817.63;7398552;19;1641;-44
2023/08/30 05:46:01;;;;;;;;;;;;;;;27.84;60.26;99815.97;7397959;19;1951;-45
2023/08/30 05:48:30;;;;;;;;;;;;;;;27.85;60.41;99827.66;7398497;19;1613;-44
2023/08/30 05:50:58;;;;;;;;;;;;;;;27.85;60.40;99833.09;7397354;19;1381;-44
2023/08/30 05:53:26;;;;;;;;;;;;;;;27.88;60.20;99832.72;7397611;19;1551;-44
2023/08/30 05:55:54;;;;;;;;;;;;;;;27.85;60.51;99830.38;7397227;19;1855;-52
2023/08/30 05:58:23;;;;;;;;;;;;;;;27.87;60.24;99841.88;7397691;19;1635;-45
2023/08/30 06:00:51;;;;;;;;;;;;;;;27.89;60.32;99837.09;7397370;19;1483;-44
2023/08/30 06:03:22;;;;;;;;;;;;;;;27.92;60.34;99836.66;7397878;19;1563;-44
2023/08/30 06:05:51;;;;;;;;;;;;;;;27.90;60.25;99827.88;7397454;19;1547;-44
2023/08/30 06:08:19;;;;;;;;;;;;;;;27.92;60.30;99837.47;7398269;19;1551;-45
2023/08/30 06:10:47;;;;;;;;;;;;;;;28.00;60.14;99843.72;7397031;19;1875;-45
2023/08/30 06:13:16;;;;;;;;;;;;;;;27.97;60.08;99844.97;7397790;19;1234;-45
2023/08/30 06:15:44;;;;;;;;;;;;;;;28.01;60.05;99848.09;7395768;19;1853;-45
2023/08/30 06:18:13;;;;;;;;;;;;;;;28.01;59.89;99848.09;7396514;19;1694;-44
2023/08/30 06:20:45;;;;;;;;;;;;;;;28.01;60.10;99838.06;7394198;19;1808;-44
2023/08/30 06:23:14;;;;;;;;;;;;;;;28.02;60.02;99844.34;7395172;19;1639;-45
2023/08/30 06:25:42;;;;;;;;;;;;;;;28.02;60.04;99834.28;7396540;19;1704;-44
2023/08/30 06:28:10;;;;;;;;;;;;;;;28.06;60.04;99843.69;7397329;19;1737;-45
2023/08/30 06:30:38;;;;;;;;;;;;;;;28.03;59.76;99830.50;7396887;19;1964;-44
2023/08/30 06:33:07;;;;;;;;;;;;;;;28.09;59.77;99840.53;7398140;19;1718;-44
2023/08/30 06:35:39;;;;;;;;;;;;;;;28.13;59.76;99841.75;7394702;19;1860;-44
2023/08/30 06:38:10;;;;;;;;;;;;;;;28.16;59.80;99840.50;7396989;19;1745;-45
2023/08/30 06:40:38;;;;;;;;;;;;;;;28.11;59.75;99843.00;7397204;19;1746;-44
2023/08/30 06:43:07;;;;;;;;;;;;;;;28.14;59.81;99850.75;7397691;19;1728;-45
2023/08/30 06:45:36;;;;;;;;;;;;;;;28.14;59.70;99843.41;7397803;19;1884;-45
2023/08/30 06:48:04;;;;;;;;;;;;;;;28.06;59.80;99834.69;7397066;19;1743;-45
2023/08/30 06:50:32;;;;;;;;;;;;;;;27.98;60.18;99853.97;7397068;19;1487;-45
2023/08/30 06:53:01;;;;;;;;;;;;;;;27.96;60.30;99851.47;7395485;19;1467;-44
2023/08/30 06:55:33;;;;;;;;;;;;;;;27.90;60.43;99838.75;7396068;19;1838;-45
2023/08/30 06:58:01;;;;;;;;;;;;;;;27.89;60.26;99839.78;7397384;19;1383;-44
2023/08/30 07:00:30;;;;;;;;;;;;;;;27.87;60.74;99840.00;7397498;19;1896;-45
2023/08/30 07:02:58;;;;;;;;;;;;;;;27.94;60.55;99837.28;7396564;19;1961;-44
2023/08/30 07:05:26;;;;;;;;;;;;;;;28.04;60.22;99850.38;7395595;19;1670;-44
2023/08/30 07:07:55;;;;;;;;;;;;;;;28.01;60.08;99842.66;7397372;19;1825;-44
2023/08/30 07:10:23;;;;;;;;;;;;;;;27.96;60.44;99840.59;7394241;19;1736;-44
2023/08/30 07:12:54;;;;;;;;;;;;;;;28.08;60.33;99857.88;7396725;19;1736;-45
2023/08/30 07:15:22;;;;;;;;;;;;;;;27.97;60.48;99855.84;7394258;19;1889;-45
2023/08/30 07:17:50;;;;;;;;;;;;;;;28.04;60.28;99856.66;7395624;19;1490;-44
2023/08/30 07:20:19;;;;;;;;;;;;;;;28.00;60.24;99852.72;7395993;19;1224;-44
2023/08/30 07:22:47;;;;;;;;;;;;;;;28.09;60.19;99834.25;7395785;19;1820;-44
2023/08/30 07:25:15;;;;;;;;;;;;;;;28.00;60.37;99832.84;7395473;19;1825;-44
2023/08/30 07:27:45;;;;;;;;;;;;;;;28.03;60.19;99829.69;7395581;19;1859;-44
2023/08/30 07:30:16;;;;;;;;;;;;;;;28.08;60.06;99838.84;7396091;19;1801;-44
2023/08/30 07:32:44;;;;;;;;;;;;;;;28.20;59.98;99825.41;7396030;19;1749;-44
2023/08/30 07:35:13;;;;;;;;;;;;;;;28.19;59.75;99831.88;7398690;19;1842;-45
2023/08/30 07:37:41;;;;;;;;;;;;;;;28.17;59.85;99812.22;7399866;19;1931;-45
2023/08/30 07:40:10;;;;;;;;;;;;;;;28.25;59.86;99830.16;7401897;19;1681;-44
2023/08/30 07:42:38;;;;;;;;;;;;;;;28.23;59.90;99835.00;7403282;19;1808;-45
2023/08/30 07:45:07;;;;;;;;;;;;;;;28.22;59.93;99846.94;7401961;19;1693;-44
2023/08/30 07:47:38;;;;;;;;;;;;;;;28.25;59.78;99838.31;7404275;19;1812;-44
2023/08/30 07:50:07;;;;;;;;;;;;;;;28.22;59.88;99823.28;7403108;19;1906;-44
2023/08/30 07:52:36;;;;;;;;;;;;;;;28.19;60.04;99825.63;7403721;19;1658;-44
2023/08/30 07:55:04;;;;;;;;;;;;;;;28.26;59.66;99827.25;7401233;19;1857;-45
2023/08/30 07:57:33;;;;;;;;;;;;;;;28.25;59.58;99822.88;7402436;19;1734;-44
2023/08/30 08:00:01;;;;;;;;;;;;;;;28.27;59.86;99828.06;7402169;19;1693;-45
2023/08/30 08:02:31;;;;;;;;;;;;;;;28.29;59.75;99825.97;7403396;19;1709;-44
2023/08/30 08:05:02;;;;;;;;;;;;;;;28.03;59.90;99814.22;7400858;19;1415;-45
2023/08/30 08:07:30;;;;;;;;;;;;;;;28.04;60.37;99818.59;7401357;19;1741;-45
2023/08/30 08:09:59;;;;;;;;;;;;;;;28.28;59.71;99833.28;7401579;19;1861;-45
2023/08/30 08:12:28;;;;;;;;;;;;;;;28.20;60.13;99827.28;7402194;19;1479;-45
2023/08/30 08:14:57;;;;;;;;;;;;;;;28.35;59.48;99822.34;7401297;19;1849;-45
2023/08/30 08:17:25;;;;;;;;;;;;;;;28.34;59.69;99807.09;7401922;19;1864;-45
2023/08/30 08:19:53;;;;;;;;;;;;;;;28.39;59.45;99806.44;7400725;19;1657;-45
2023/08/30 08:22:24;;;;;;;;;;;;;;;28.45;59.57;99805.56;7400346;19;1782;-45
2023/08/30 08:24:53;;;;;;;;;;;;;;;28.46;59.35;99797.19;7400688;19;1725;-45
2023/08/30 08:27:21;;;;;;;;;;;;;;;28.36;59.71;99808.53;7400242;19;1709;-45
2023/08/30 08:29:50;;;;;;;;;;;;;;;28.10;60.25;99804.13;7400330;19;1753;-46
2023/08/30 08:32:18;;;;;;;;;;;;;;;28.08;60.53;99806.25;7401100;19;1808;-45
2023/08/30 08:34:46;;;;;;;;;;;;;;;28.32;60.17;99811.94;7400490;19;1829;-45
2023/08/30 08:37:15;;;;;;;;;;;;;;;28.39;59.87;99814.59;7400362;19;1524;-45
2023/08/30 08:39:46;;;;;;;;;;;;;;;28.44;59.71;99804.72;7400078;19;1455;-45
2023/08/30 08:42:14;;;;;;;;;;;;;;;28.36;59.64;99800.38;7399917;19;1194;-45
2023/08/30 08:44:43;;;;;;;;;;;;;;;28.44;59.78;99798.47;7400187;19;1495;-45
2023/08/30 08:47:12;;;;;;;;;;;;;;;28.33;59.94;99814.44;7398782;19;1630;-45
2023/08/30 08:49:40;;;;;;;;;;;;;;;28.46;59.78;99808.06;7399705;19;1506;-46
2023/08/30 08:52:09;;;;;;;;;;;;;;;28.45;59.34;99800.97;7399755;19;2001;-45
2023/08/30 08:54:38;;;;;;;;;;;;;;;28.47;59.32;99801.56;7400603;19;1512;-45
2023/08/30 08:57:10;;;;;;;;;;;;;;;28.41;59.68;99798.88;7397838;19;1938;-45
2023/08/30 08:59:38;;;;;;;;;;;;;;;28.48;59.58;99805.94;7399391;19;1841;-45
2023/08/30 09:02:07;;;;;;;;;;;;;;;28.49;59.32;99796.75;7400288;19;1601;-45
2023/08/30 09:04:36;;;;;;;;;;;;;;;28.51;59.25;99791.94;7399959;19;1599;-45
2023/08/30 09:07:04;;;;;;;;;;;;;;;28.50;59.31;99784.81;7399699;19;1491;-45
2023/08/30 09:09:32;;;;;;;;;;;;;;;28.36;59.55;99783.25;7398178;19;1425;-48
2023/08/30 09:12:01;;;;;;;;;;;;;;;28.40;59.79;99776.31;7400159;19;1133;-45
2023/08/30 09:14:31;;;;;;;;;;;;;;;28.49;59.38;99775.00;7400300;19;1547;-44
2023/08/30 09:17:01;;;;;;;;;;;;;;;28.52;59.33;99773.72;7398566;19;2166;-45
2023/08/30 09:19:29;;;;;;;;;;;;;;;28.50;59.62;99782.09;7399211;19;1867;-45
2023/08/30 09:21:58;;;;;;;;;;;;;;;28.49;59.29;99775.00;7398330;19;1503;-45
2023/08/30 09:24:26;;;;;;;;;;;;;;;28.47;59.59;99768.09;7398345;19;1562;-45
2023/08/30 09:26:56;;;;;;;;;;;;;;;28.38;59.84;99764.81;7399177;19;1425;-45
2023/08/30 09:29:24;;;;;;;;;;;;;;;28.50;59.42;99764.94;7399303;19;1569;-45
2023/08/30 09:31:56;;;;;;;;;;;;;;;28.48;59.62;99762.44;7398726;19;1502;-45
2023/08/30 09:34:27;;;;;;;;;;;;;;;28.24;60.10;99766.00;7398477;19;1637;-45
2023/08/30 09:36:59;;;;;;;;;;;;;;;28.22;60.49;99758.06;7397417;19;1838;-45
2023/08/30 09:39:27;;;;;;;;;;;;;;;28.45;59.77;99760.19;7397889;19;1836;-45
2023/08/30 09:41:56;;;;;;;;;;;;;;;28.37;59.73;99749.56;7396963;19;1895;-45
2023/08/30 09:44:25;;;;;;;;;;;;;;;28.23;60.27;99758.88;7397434;19;1686;-44
2023/08/30 09:46:57;;;;;;;;;;;;;;;28.08;60.36;99757.31;7396134;19;1165;-45
2023/08/30 09:49:26;;;;;;;;;;;;;;;28.18;60.58;99754.13;7397937;19;1659;-45
2023/08/30 09:51:55;;;;;;;;;;;;;;;28.47;59.85;99763.50;7397585;19;1499;-45
2023/08/30 09:54:24;;;;;;;;;;;;;;;28.53;59.74;99762.63;7398252;19;1514;-45
2023/08/30 09:56:52;;;;;;;;;;;;;;;28.55;59.50;99751.50;7394871;19;1855;-45
2023/08/30 09:59:21;;;;;;;;;;;;;;;28.45;59.72;99746.56;7397671;19;1473;-44
2023/08/30 10:01:52;;;;;;;;;;;;;;;28.52;59.62;99738.38;7397726;19;1543;-44
2023/08/30 10:04:23;;;;;;;;;;;;;;;28.45;59.92;99745.72;7398102;19;1933;-45
2023/08/30 10:06:52;;;;;;;;;;;;;;;28.49;59.70;99728.75;7396492;19;1298;-44
2023/08/30 10:09:20;;;;;;;;;;;;;;;28.38;59.89;99728.66;7397601;19;1273;-45
2023/08/30 10:11:49;;;;;;;;;;;;;;;28.58;59.61;99736.66;7398151;19;1515;-45
2023/08/30 10:14:17;;;;;;;;;;;;;;;28.56;59.65;99739.59;7397911;19;1525;-45
2023/08/30 10:16:46;;;;;;;;;;;;;;;28.55;59.79;99740.63;7395676;19;1966;-49
2023/08/30 10:19:17;;;;;;;;;;;;;;;28.56;59.57;99726.81;7396990;19;1380;-44
2023/08/30 10:21:50;;;;;;;;;;;;;;;28.47;59.89;99733.59;7396806;19;1578;-45
2023/08/30 10:24:21;;;;;;;;;;;;;;;28.45;59.82;99718.53;7396113;19;1382;-44
2023/08/30 10:26:51;;;;;;;;;;;;;;;28.45;59.88;99719.38;7396303;19;1448;-45
2023/08/30 10:29:20;;;;;;;;;;;;;;;28.51;59.76;99729.41;7396820;19;1493;-45
2023/08/30 10:31:48;;;;;;;;;;;;;;;28.56;59.82;99726.00;7396442;19;1559;-44
2023/08/30 10:34:18;;;;;;;;;;;;;;;28.53;59.65;99710.97;7397792;19;1520;-45
2023/08/30 10:36:58;;;;;;;;;;;;;;;28.47;59.90;99727.28;7394978;19;1860;-45
2023/08/30 10:39:35;;;;;;;;;;;;;;;28.48;59.81;99720.81;7397513;19;1810;-45
2023/08/30 10:42:04;;;;;;;;;;;;;;;28.48;59.94;99723.53;7397512;19;1330;-45
2023/08/30 10:44:32;;;;;;;;;;;;;;;28.37;60.02;99716.91;7397910;19;1729;-44
2023/08/30 10:47:04;;;;;;;;;;;;;;;28.50;59.56;99711.41;7396901;19;1729;-45
2023/08/30 10:49:41;;;;;;;;;;;;;;;28.48;60.00;99690.91;7396801;19;1507;-56
2023/08/30 10:52:14;;;;;;;;;;;;;;;28.55;59.58;99713.44;7396499;19;1539;-52
2023/08/30 10:54:43;;;;;;;;;;;;;;;28.52;59.86;99706.56;7396655;19;1733;-44
2023/08/30 10:57:15;;;;;;;;;;;;;;;28.48;59.73;99708.03;7395269;19;1865;-45
2023/08/30 10:59:50;;;;;;;;;;;;;;;28.53;59.76;99700.09;7395786;19;1398;-44
2023/08/30 11:02:19;;;;;;;;;;;;;;;28.52;59.75;99682.09;7395606;19;1479;-45
2023/08/30 11:04:47;;;;;;;;;;;;;;;28.46;60.03;99677.53;7396358;19;1710;-44
2023/08/30 11:07:18;;;;;;;;;;;;;;;28.53;59.81;99693.78;7395974;19;1938;-44
2023/08/30 11:09:47;;;;;;;;;;;;;;;28.49;59.82;99687.97;7400353;19;1737;-44
2023/08/30 11:12:15;;;;;;;;;;;;;;;28.38;60.09;99683.25;7403731;19;1505;-44
2023/08/30 11:14:43;;;;;;;;;;;;;;;28.49;60.02;99679.81;7404083;19;1729;-45
2023/08/30 11:17:12;;;;;;;;;;;;;;;28.44;60.22;99667.94;7402064;19;1853;-46
2023/08/30 11:19:40;;;;;;;;;;;;;;;28.42;60.19;99672.75;7403976;19;1805;-45
2023/08/30 11:22:09;;;;;;;;;;;;;;;28.51;59.86;99683.16;7403107;19;1941;-44
2023/08/30 11:24:40;;;;;;;;;;;;;;;28.46;59.84;99663.09;7402279;19;1590;-44
2023/08/30 11:27:08;;;;;;;;;;;;;;;28.45;60.09;99665.00;7401945;19;1606;-45
2023/08/30 11:29:36;;;;;;;;;;;;;;;28.48;59.77;99653.66;7402549;19;1538;-45
2023/08/30 11:32:04;;;;;;;;;;;;;;;28.48;59.87;99648.22;7401856;19;1369;-44
2023/08/30 11:34:34;;;;;;;;;;;;;;;28.42;60.33;99651.84;7403638;19;1574;-45
2023/08/30 11:37:03;;;;;;;;;;;;;;;28.46;60.03;99644.88;7400099;19;1846;-45
2023/08/30 11:39:31;;;;;;;;;;;;;;;28.50;60.21;99653.44;7402735;19;1734;-44
2023/08/30 11:42:02;;;;;;;;;;;;;;;28.45;59.93;99643.25;7401212;19;1021;-49
2023/08/30 11:44:31;;;;;;;;;;;;;;;28.32;60.26;99635.22;7403710;19;1796;-45
2023/08/30 11:47:02;;;;;;;;;;;;;;;28.35;60.18;99638.31;7402531;19;1380;-44
2023/08/30 11:49:31;;;;;;;;;;;;;;;28.36;60.37;99636.41;7401012;19;1556;-45
2023/08/30 11:52:00;;;;;;;;;;;;;;;28.46;60.30;99636.72;7401820;19;1391;-45
2023/08/30 11:54:29;;;;;;;;;;;;;;;28.39;60.53;99632.41;7401570;19;1451;-45
2023/08/30 11:56:57;;;;;;;;;;;;;;;28.45;60.36;99626.06;7399426;19;1849;-45
2023/08/30 11:59:28;;;;;;;;;;;;;;;28.35;60.68;99618.44;7400442;19;1747;-45
2023/08/30 12:01:57;;;;;;;;;;;;;;;28.43;60.50;99614.59;7398606;19;1423;-45
2023/08/30 12:04:25;;;;;;;;;;;;;;;28.53;60.04;99607.63;7402443;19;1824;-45
2023/08/30 12:06:54;;;;;;;;;;;;;;;28.48;60.01;99621.00;7402115;19;1673;-45
2023/08/30 12:09:23;;;;;;;;;;;;;;;28.47;60.10;99600.34;7402217;19;1527;-45
2023/08/30 12:11:51;;;;;;;;;;;;;;;28.55;60.09;99604.63;7401977;19;1720;-44
2023/08/30 12:14:19;;;;;;;;;;;;;;;28.48;60.46;99615.56;7402575;19;1730;-45
2023/08/30 12:16:50;;;;;;;;;;;;;;;28.48;60.07;99607.41;7401041;19;1866;-44
2023/08/30 12:19:19;;;;;;;;;;;;;;;28.40;60.47;99606.91;7401235;19;1931;-45
2023/08/30 12:21:49;;;;;;;;;;;;;;;28.39;60.58;99622.34;7397331;19;1954;-45
2023/08/30 12:24:18;;;;;;;;;;;;;;;28.52;60.19;99603.22;7401291;19;1429;-45
2023/08/30 12:26:46;;;;;;;;;;;;;;;28.60;59.86;99609.41;7401141;19;1772;-45
2023/08/30 12:29:15;;;;;;;;;;;;;;;28.63;59.64;99606.22;7399542;19;1748;-44
2023/08/30 12:31:43;;;;;;;;;;;;;;;28.62;59.91;99608.13;7400702;19;1745;-44
2023/08/30 12:34:14;;;;;;;;;;;;;;;28.55;59.96;99610.94;7401392;19;1828;-45
2023/08/30 12:36:42;;;;;;;;;;;;;;;28.61;59.91;99594.75;7400440;19;1839;-45
2023/08/30 12:39:10;;;;;;;;;;;;;;;28.56;59.94;99585.38;7401303;19;1674;-45
2023/08/30 12:41:41;;;;;;;;;;;;;;;28.55;60.19;99583.75;7401729;19;1483;-44
2023/08/30 12:44:09;;;;;;;;;;;;;;;28.50;60.32;99586.28;7399877;19;1610;-45
2023/08/30 12:46:38;;;;;;;;;;;;;;;28.50;60.24;99580.00;7400584;19;1462;-45
2023/08/30 12:49:06;;;;;;;;;;;;;;;28.49;60.09;99579.19;7400670;19;1867;-45
2023/08/30 12:51:37;;;;;;;;;;;;;;;28.52;60.06;99577.91;7400264;19;1455;-45
2023/08/30 12:54:05;;;;;;;;;;;;;;;28.61;59.80;99575.72;7400158;19;1814;-45
2023/08/30 12:56:34;;;;;;;;;;;;;;;28.63;59.85;99566.28;7397761;19;1848;-45
2023/08/30 12:59:03;;;;;;;;;;;;;;;28.61;59.91;99554.78;7398914;19;1400;-45
2023/08/30 13:01:31;;;;;;;;;;;;;;;28.56;59.79;99552.75;7401175;19;1804;-45
2023/08/30 13:03:59;;;;;;;;;;;;;;;28.58;59.77;99555.25;7400055;19;1730;-44
2023/08/30 13:06:27;;;;;;;;;;;;;;;28.54;60.11;99562.19;7399751;19;2058;-44